sensor_id;sensor_type;location;lat;lon;timestamp;pressure;altitude;pressure_sealevel;temperature
77223;BMP280;66218;48.928;9.140;2023-01-28T00:01:44;99102.84;;;2.32
77223;BMP280;66218;48.928;9.140;2023-01-28T00:04:10;99102.84;;;2.32
77223;BMP280;66218;48.928;9.140;2023-01-28T00:06:35;99093.25;;;2.31
77223;BMP280;66218;48.928;9.140;2023-01-28T00:09:02;99092.09;;;2.34
77223;BMP280;66218;48.928;9.140;2023-01-28T00:11:27;99109.31;;;2.46
77223;BMP280;66218;48.928;9.140;2023-01-28T00:13:53;99106.34;;;2.51
77223;BMP280;66218;48.928;9.140;2023-01-28T00:16:19;99106.34;;;2.51
77223;BMP280;66218;48.928;9.140;2023-01-28T00:18:47;99095.16;;;2.47
77223;BMP280;66218;48.928;9.140;2023-01-28T00:21:13;99103.94;;;2.55
77223;BMP280;66218;48.928;9.140;2023-01-28T00:23:45;99107.66;;;2.60
77223;BMP280;66218;48.928;9.140;2023-01-28T00:26:13;99103.34;;;2.57
77223;BMP280;66218;48.928;9.140;2023-01-28T00:28:39;99105.63;;;2.51
77223;BMP280;66218;48.928;9.140;2023-01-28T00:31:06;99100.44;;;2.45
77223;BMP280;66218;48.928;9.140;2023-01-28T00:33:32;99091.25;;;2.41
77223;BMP280;66218;48.928;9.140;2023-01-28T00:35:59;99092.25;;;2.45
77223;BMP280;66218;48.928;9.140;2023-01-28T00:38:25;99087.97;;;2.42
77223;BMP280;66218;48.928;9.140;2023-01-28T00:40:50;99084.94;;;2.38
77223;BMP280;66218;48.928;9.140;2023-01-28T00:43:16;99083.66;;;2.39
77223;BMP280;66218;48.928;9.140;2023-01-28T00:45:41;99084.78;;;2.36
77223;BMP280;66218;48.928;9.140;2023-01-28T00:48:06;99082.66;;;2.35
77223;BMP280;66218;48.928;9.140;2023-01-28T00:50:32;99084.94;;;2.38
77223;BMP280;66218;48.928;9.140;2023-01-28T00:52:57;99087.97;;;2.42
77223;BMP280;66218;48.928;9.140;2023-01-28T00:55:23;99090.84;;;2.44
77223;BMP280;66218;48.928;9.140;2023-01-28T00:57:48;99090.13;;;2.44
77223;BMP280;66218;48.928;9.140;2023-01-28T01:00:14;99082.09;;;2.46
77223;BMP280;66218;48.928;9.140;2023-01-28T01:02:39;99086.97;;;2.47
77223;BMP280;66218;48.928;9.140;2023-01-28T01:05:05;99086.97;;;2.47
77223;BMP280;66218;48.928;9.140;2023-01-28T01:07:30;99081.22;;;2.43
77223;BMP280;66218;48.928;9.140;2023-01-28T01:10:10;99081.22;;;2.43
77223;BMP280;66218;48.928;9.140;2023-01-28T01:12:36;99076.19;;;2.40
77223;BMP280;66218;48.928;9.140;2023-01-28T01:15:02;99076.19;;;2.40
77223;BMP280;66218;48.928;9.140;2023-01-28T01:17:30;99080.22;;;2.29
77223;BMP280;66218;48.928;9.140;2023-01-28T01:19:56;99083.50;;;2.27
77223;BMP280;66218;48.928;9.140;2023-01-28T01:22:21;99081.66;;;2.30
77223;BMP280;66218;48.928;9.140;2023-01-28T01:24:47;99088.22;;;2.27
77223;BMP280;66218;48.928;9.140;2023-01-28T01:27:12;99087.09;;;2.30
77223;BMP280;66218;48.928;9.140;2023-01-28T01:29:38;99089.66;;;2.28
77223;BMP280;66218;48.928;9.140;2023-01-28T01:32:04;99096.25;;;2.25
77223;BMP280;66218;48.928;9.140;2023-01-28T01:34:29;99094.09;;;2.23
77223;BMP280;66218;48.928;9.140;2023-01-28T01:36:54;99107.56;;;2.31
77223;BMP280;66218;48.928;9.140;2023-01-28T01:39:20;99113.19;;;2.33
77223;BMP280;66218;48.928;9.140;2023-01-28T01:41:45;99113.19;;;2.33
77223;BMP280;66218;48.928;9.140;2023-01-28T01:47:15;99100.09;;;2.22
77223;BMP280;66218;48.928;9.140;2023-01-28T01:49:41;99101.41;;;2.21
77223;BMP280;66218;48.928;9.140;2023-01-28T01:52:14;99108.84;;;2.20
77223;BMP280;66218;48.928;9.140;2023-01-28T01:54:42;99108.84;;;2.20
77223;BMP280;66218;48.928;9.140;2023-01-28T01:57:10;99101.22;;;2.19
77223;BMP280;66218;48.928;9.140;2023-01-28T01:59:39;99102.84;;;2.22
77223;BMP280;66218;48.928;9.140;2023-01-28T02:02:06;99099.13;;;2.37
77223;BMP280;66218;48.928;9.140;2023-01-28T02:04:37;99099.13;;;2.37
77223;BMP280;66218;48.928;9.140;2023-01-28T02:07:04;99098.72;;;2.31
77223;BMP280;66218;48.928;9.140;2023-01-28T02:09:32;99099.28;;;2.29
77223;BMP280;66218;48.928;9.140;2023-01-28T02:12:11;99109.28;;;2.26
77223;BMP280;66218;48.928;9.140;2023-01-28T02:14:46;99109.28;;;2.26
77223;BMP280;66218;48.928;9.140;2023-01-28T02:17:12;99102.53;;;2.18
77223;BMP280;66218;48.928;9.140;2023-01-28T02:19:56;99095.47;;;2.15
77223;BMP280;66218;48.928;9.140;2023-01-28T02:28:08;99101.81;;;2.17
77223;BMP280;66218;48.928;9.140;2023-01-28T02:31:05;99100.38;;;2.16
77223;BMP280;66218;48.928;9.140;2023-01-28T02:33:51;99105.09;;;2.16
77223;BMP280;66218;48.928;9.140;2023-01-28T02:36:29;99104.38;;;2.15
77223;BMP280;66218;48.928;9.140;2023-01-28T02:39:01;99107.41;;;2.19
77223;BMP280;66218;48.928;9.140;2023-01-28T02:41:58;99119.16;;;2.22
77223;BMP280;66218;48.928;9.140;2023-01-28T02:44:24;99112.00;;;2.17
77223;BMP280;66218;48.928;9.140;2023-01-28T02:46:53;99103.81;;;2.17
77223;BMP280;66218;48.928;9.140;2023-01-28T02:49:40;99114.44;;;2.22
77223;BMP280;66218;48.928;9.140;2023-01-28T02:55:51;99115.63;;;2.29
77223;BMP280;66218;48.928;9.140;2023-01-28T02:58:38;99109.72;;;2.33
77223;BMP280;66218;48.928;9.140;2023-01-28T03:01:09;99122.91;;;2.36
77223;BMP280;66218;48.928;9.140;2023-01-28T03:03:46;99122.91;;;2.36
77223;BMP280;66218;48.928;9.140;2023-01-28T03:06:21;99113.72;;;2.32
77223;BMP280;66218;48.928;9.140;2023-01-28T03:08:53;99110.91;;;2.39
77223;BMP280;66218;48.928;9.140;2023-01-28T03:11:42;99125.53;;;2.44
77223;BMP280;66218;48.928;9.140;2023-01-28T03:14:29;99125.53;;;2.44
77223;BMP280;66218;48.928;9.140;2023-01-28T03:17:27;99121.94;;;2.41
77223;BMP280;66218;48.928;9.140;2023-01-28T03:20:13;99122.50;;;2.40
77223;BMP280;66218;48.928;9.140;2023-01-28T03:23:02;99124.22;;;2.45
77223;BMP280;66218;48.928;9.140;2023-01-28T03:25:52;99119.50;;;2.45
77223;BMP280;66218;48.928;9.140;2023-01-28T03:28:38;99121.81;;;2.49
77223;BMP280;66218;48.928;9.140;2023-01-28T03:31:22;99127.56;;;2.53
77223;BMP280;66218;48.928;9.140;2023-01-28T03:34:09;99114.09;;;2.55
77223;BMP280;66218;48.928;9.140;2023-01-28T03:36:54;99121.84;;;2.59
77223;BMP280;66218;48.928;9.140;2023-01-28T03:39:28;99132.19;;;2.60
77223;BMP280;66218;48.928;9.140;2023-01-28T03:42:14;99127.16;;;2.57
77223;BMP280;66218;48.928;9.140;2023-01-28T03:44:40;99132.91;;;2.61
77223;BMP280;66218;48.928;9.140;2023-01-28T03:47:20;99137.22;;;2.64
77223;BMP280;66218;48.928;9.140;2023-01-28T03:49:48;99132.19;;;2.60
77223;BMP280;66218;48.928;9.140;2023-01-28T03:52:16;99136.75;;;2.58
77223;BMP280;66218;48.928;9.140;2023-01-28T03:54:43;99136.84;;;2.50
77223;BMP280;66218;48.928;9.140;2023-01-28T03:57:08;99132.00;;;2.48
77223;BMP280;66218;48.928;9.140;2023-01-28T03:59:34;99123.50;;;2.44
77223;BMP280;66218;48.928;9.140;2023-01-28T04:02:00;99145.22;;;2.62
77223;BMP280;66218;48.928;9.140;2023-01-28T04:04:28;99145.22;;;2.62
77223;BMP280;66218;48.928;9.140;2023-01-28T04:06:53;99132.16;;;2.50
77223;BMP280;66218;48.928;9.140;2023-01-28T04:09:20;99135.84;;;2.45
77223;BMP280;66218;48.928;9.140;2023-01-28T04:11:45;99142.16;;;2.48
77223;BMP280;66218;48.928;9.140;2023-01-28T04:14:11;99142.16;;;2.48
77223;BMP280;66218;48.928;9.140;2023-01-28T04:16:36;99135.41;;;2.39
77223;BMP280;66218;48.928;9.140;2023-01-28T04:19:02;99139.13;;;2.34
77223;BMP280;66218;48.928;9.140;2023-01-28T04:21:27;99136.66;;;2.28
77223;BMP280;66218;48.928;9.140;2023-01-28T04:23:52;99143.09;;;2.23
77223;BMP280;66218;48.928;9.140;2023-01-28T04:26:18;99141.66;;;2.22
77223;BMP280;66218;48.928;9.140;2023-01-28T04:28:43;99140.94;;;2.22
77223;BMP280;66218;48.928;9.140;2023-01-28T04:31:08;99145.25;;;2.25
77223;BMP280;66218;48.928;9.140;2023-01-28T04:33:34;99152.69;;;2.24
77223;BMP280;66218;48.928;9.140;2023-01-28T04:35:59;99146.53;;;2.24
77223;BMP280;66218;48.928;9.140;2023-01-28T04:38:24;99154.56;;;2.32
77223;BMP280;66218;48.928;9.140;2023-01-28T04:40:51;99154.56;;;2.32
77223;BMP280;66218;48.928;9.140;2023-01-28T04:43:17;99158.88;;;2.25
77223;BMP280;66218;48.928;9.140;2023-01-28T04:45:43;99160.00;;;2.22
77223;BMP280;66218;48.928;9.140;2023-01-28T04:48:09;99158.97;;;2.17
77223;BMP280;66218;48.928;9.140;2023-01-28T04:50:34;99166.56;;;2.19
77223;BMP280;66218;48.928;9.140;2023-01-28T04:52:59;99168.44;;;2.16
77223;BMP280;66218;48.928;9.140;2023-01-28T04:55:25;99168.44;;;2.16
77223;BMP280;66218;48.928;9.140;2023-01-28T04:57:50;99161.78;;;2.10
77223;BMP280;66218;48.928;9.140;2023-01-28T05:00:16;99169.00;;;2.15
77223;BMP280;66218;48.928;9.140;2023-01-28T05:02:41;99169.00;;;2.15
77223;BMP280;66218;48.928;9.140;2023-01-28T05:05:06;99163.81;;;2.09
77223;BMP280;66218;48.928;9.140;2023-01-28T05:07:34;99171.25;;;2.09
77223;BMP280;66218;48.928;9.140;2023-01-28T05:09:59;99169.97;;;2.10
77223;BMP280;66218;48.928;9.140;2023-01-28T05:12:24;99184.34;;;2.20
77223;BMP280;66218;48.928;9.140;2023-01-28T05:14:50;99184.34;;;2.20
77223;BMP280;66218;48.928;9.140;2023-01-28T05:17:15;99170.41;;;2.16
77223;BMP280;66218;48.928;9.140;2023-01-28T05:19:40;99172.19;;;2.21
77223;BMP280;66218;48.928;9.140;2023-01-28T05:22:06;99168.88;;;2.22
77223;BMP280;66218;48.928;9.140;2023-01-28T05:24:31;99184.69;;;2.34
77223;BMP280;66218;48.928;9.140;2023-01-28T05:26:56;99184.69;;;2.34
77223;BMP280;66218;48.928;9.140;2023-01-28T05:29:22;99180.41;;;2.31
77223;BMP280;66218;48.928;9.140;2023-01-28T05:31:47;99171.94;;;2.36
77223;BMP280;66218;48.928;9.140;2023-01-28T05:34:12;99173.53;;;2.39
77223;BMP280;66218;48.928;9.140;2023-01-28T05:36:38;99185.13;;;2.40
77223;BMP280;66218;48.928;9.140;2023-01-28T05:39:05;99188.16;;;2.44
77223;BMP280;66218;48.928;9.140;2023-01-28T05:41:32;99189.28;;;2.41
77223;BMP280;66218;48.928;9.140;2023-01-28T05:43:57;99195.94;;;2.47
77223;BMP280;66218;48.928;9.140;2023-01-28T05:46:22;99188.88;;;2.44
77223;BMP280;66218;48.928;9.140;2023-01-28T05:48:49;99188.88;;;2.44
77223;BMP280;66218;48.928;9.140;2023-01-28T05:51:15;99184.88;;;2.45
77223;BMP280;66218;48.928;9.140;2023-01-28T05:53:40;99181.00;;;2.48
77223;BMP280;66218;48.928;9.140;2023-01-28T05:56:06;99183.75;;;2.48
77223;BMP280;66218;48.928;9.140;2023-01-28T05:58:31;99195.34;;;2.49
77223;BMP280;66218;48.928;9.140;2023-01-28T06:00:56;99193.25;;;2.57
77223;BMP280;66218;48.928;9.140;2023-01-28T06:03:22;99193.25;;;2.57
77223;BMP280;66218;48.928;9.140;2023-01-28T06:05:48;99189.81;;;2.57
77223;BMP280;66218;48.928;9.140;2023-01-28T06:08:13;99194.13;;;2.60
77223;BMP280;66218;48.928;9.140;2023-01-28T06:10:38;99192.81;;;2.61
77223;BMP280;66218;48.928;9.140;2023-01-28T06:13:03;99204.03;;;2.65
77223;BMP280;66218;48.928;9.140;2023-01-28T06:15:29;99211.59;;;2.57
77223;BMP280;66218;48.928;9.140;2023-01-28T06:17:54;99211.59;;;2.57
77223;BMP280;66218;48.928;9.140;2023-01-28T06:20:19;99224.94;;;2.62
77223;BMP280;66218;48.928;9.140;2023-01-28T06:22:45;99224.94;;;2.62
77223;BMP280;66218;48.928;9.140;2023-01-28T06:25:10;99226.66;;;2.58
77223;BMP280;66218;48.928;9.140;2023-01-28T06:27:35;99215.91;;;2.60
77223;BMP280;66218;48.928;9.140;2023-01-28T06:30:01;99228.41;;;2.72
77223;BMP280;66218;48.928;9.140;2023-01-28T06:32:27;99231.31;;;2.84
77223;BMP280;66218;48.928;9.140;2023-01-28T06:34:52;99229.34;;;2.94
77223;BMP280;66218;48.928;9.140;2023-01-28T06:37:17;99243.41;;;3.10
77223;BMP280;66218;48.928;9.140;2023-01-28T06:39:43;99243.41;;;3.10
77223;BMP280;66218;48.928;9.140;2023-01-28T06:42:08;99238.25;;;3.14
77223;BMP280;66218;48.928;9.140;2023-01-28T06:44:33;99240.44;;;3.16
77223;BMP280;66218;48.928;9.140;2023-01-28T06:46:59;99249.47;;;3.18
77223;BMP280;66218;48.928;9.140;2023-01-28T06:49:24;99249.47;;;3.18
77223;BMP280;66218;48.928;9.140;2023-01-28T06:51:49;99248.16;;;3.19
77223;BMP280;66218;48.928;9.140;2023-01-28T06:54:15;99247.47;;;3.28
77223;BMP280;66218;48.928;9.140;2023-01-28T06:56:40;99250.63;;;3.25
77223;BMP280;66218;48.928;9.140;2023-01-28T06:59:06;99256.06;;;3.25
77223;BMP280;66218;48.928;9.140;2023-01-28T07:01:32;99255.53;;;3.46
77223;BMP280;66218;48.928;9.140;2023-01-28T07:03:57;99249.34;;;3.36
77223;BMP280;66218;48.928;9.140;2023-01-28T07:06:22;99249.34;;;3.36
77223;BMP280;66218;48.928;9.140;2023-01-28T07:08:48;99255.22;;;3.32
77223;BMP280;66218;48.928;9.140;2023-01-28T07:11:14;99264.09;;;3.13
77223;BMP280;66218;48.928;9.140;2023-01-28T07:13:39;99264.09;;;3.13
77223;BMP280;66218;48.928;9.140;2023-01-28T07:16:05;99258.63;;;3.03
77223;BMP280;66218;48.928;9.140;2023-01-28T07:18:31;99268.34;;;2.87
77223;BMP280;66218;48.928;9.140;2023-01-28T07:20:56;99268.34;;;2.87
77223;BMP280;66218;48.928;9.140;2023-01-28T07:23:21;99267.41;;;2.75
77223;BMP280;66218;48.928;9.140;2023-01-28T07:25:47;99283.16;;;2.67
77223;BMP280;66218;48.928;9.140;2023-01-28T07:28:15;99283.16;;;2.67
77223;BMP280;66218;48.928;9.140;2023-01-28T07:30:47;99271.53;;;2.57
77223;BMP280;66218;48.928;9.140;2023-01-28T07:33:13;99290.59;;;2.66
77223;BMP280;66218;48.928;9.140;2023-01-28T07:35:38;99289.63;;;2.71
77223;BMP280;66218;48.928;9.140;2023-01-28T07:38:03;99281.94;;;2.77
77223;BMP280;66218;48.928;9.140;2023-01-28T07:40:28;99285.00;;;2.91
77223;BMP280;66218;48.928;9.140;2023-01-28T07:42:54;99282.56;;;3.05
77223;BMP280;66218;48.928;9.140;2023-01-28T07:45:21;99295.53;;;3.14
77223;BMP280;66218;48.928;9.140;2023-01-28T07:47:58;99295.69;;;3.16
77223;BMP280;66218;48.928;9.140;2023-01-28T07:50:25;99294.69;;;3.21
77223;BMP280;66218;48.928;9.140;2023-01-28T07:52:50;99290.81;;;3.34
77223;BMP280;66218;48.928;9.140;2023-01-28T07:55:16;99298.91;;;3.42
77223;BMP280;66218;48.928;9.140;2023-01-28T07:57:49;99301.47;;;3.49
77223;BMP280;66218;48.928;9.140;2023-01-28T08:00:15;99302.31;;;3.52
77223;BMP280;66218;48.928;9.140;2023-01-28T08:02:41;99297.75;;;3.54
77223;BMP280;66218;48.928;9.140;2023-01-28T08:05:09;99304.06;;;3.67
77223;BMP280;66218;48.928;9.140;2023-01-28T08:07:34;99310.81;;;3.66
77223;BMP280;66218;48.928;9.140;2023-01-28T08:09:59;99308.97;;;3.58
77223;BMP280;66218;48.928;9.140;2023-01-28T08:12:25;99311.97;;;3.63
77223;BMP280;66218;48.928;9.140;2023-01-28T08:14:50;99319.41;;;3.52
77223;BMP280;66218;48.928;9.140;2023-01-28T08:17:15;99320.84;;;3.53
77223;BMP280;66218;48.928;9.140;2023-01-28T08:19:40;99315.69;;;3.57
77223;BMP280;66218;48.928;9.140;2023-01-28T08:22:06;99315.44;;;3.63
77223;BMP280;66218;48.928;9.140;2023-01-28T08:24:31;99322.00;;;3.60
77223;BMP280;66218;48.928;9.140;2023-01-28T08:26:56;99322.00;;;3.60
77223;BMP280;66218;48.928;9.140;2023-01-28T08:29:22;99330.34;;;3.62
77223;BMP280;66218;48.928;9.140;2023-01-28T08:31:47;99330.03;;;3.58
77223;BMP280;66218;48.928;9.140;2023-01-28T08:34:12;99327.31;;;3.58
77223;BMP280;66218;48.928;9.140;2023-01-28T08:36:37;99331.63;;;3.61
77223;BMP280;66218;48.928;9.140;2023-01-28T08:39:03;99330.09;;;3.68
77223;BMP280;66218;48.928;9.140;2023-01-28T08:41:29;99330.78;;;3.68
77223;BMP280;66218;48.928;9.140;2023-01-28T08:43:54;99324.88;;;3.62
77223;BMP280;66218;48.928;9.140;2023-01-28T08:46:20;99326.78;;;3.69
77223;BMP280;66218;48.928;9.140;2023-01-28T08:48:45;99324.03;;;3.69
77223;BMP280;66218;48.928;9.140;2023-01-28T08:51:10;99318.59;;;3.69
77223;BMP280;66218;48.928;9.140;2023-01-28T08:53:36;99327.63;;;3.81
77223;BMP280;66218;48.928;9.140;2023-01-28T08:56:01;99329.94;;;3.95
77223;BMP280;66218;48.928;9.140;2023-01-28T08:58:26;99332.50;;;4.02
77223;BMP280;66218;48.928;9.140;2023-01-28T09:00:52;99329.34;;;3.96
77223;BMP280;66218;48.928;9.140;2023-01-28T09:03:17;99333.09;;;3.91
77223;BMP280;66218;48.928;9.140;2023-01-28T09:05:43;99337.25;;;4.02
77223;BMP280;66218;48.928;9.140;2023-01-28T09:08:12;99329.91;;;4.04
77223;BMP280;66218;48.928;9.140;2023-01-28T09:10:37;99339.69;;;4.17
77223;BMP280;66218;48.928;9.140;2023-01-28T09:13:08;99344.69;;;4.21
77223;BMP280;66218;48.928;9.140;2023-01-28T09:15:34;99345.56;;;4.33
77223;BMP280;66218;48.928;9.140;2023-01-28T09:17:59;99349.41;;;4.39
77223;BMP280;66218;48.928;9.140;2023-01-28T09:20:25;99355.50;;;4.28
77223;BMP280;66218;48.928;9.140;2023-01-28T09:22:51;99355.81;;;3.94
77223;BMP280;66218;48.928;9.140;2023-01-28T09:25:16;99359.66;;;3.81
77223;BMP280;66218;48.928;9.140;2023-01-28T09:27:42;99359.81;;;3.83
77223;BMP280;66218;48.928;9.140;2023-01-28T09:30:07;99356.78;;;3.79
77223;BMP280;66218;48.928;9.140;2023-01-28T09:32:34;99364.97;;;3.69
77223;BMP280;66218;48.928;9.140;2023-01-28T09:35:00;99366.13;;;3.76
77223;BMP280;66218;48.928;9.140;2023-01-28T09:37:25;99359.09;;;3.73
77223;BMP280;66218;48.928;9.140;2023-01-28T09:39:50;99361.38;;;3.67
77223;BMP280;66218;48.928;9.140;2023-01-28T09:45:00;99379.34;;;3.79
77223;BMP280;66218;48.928;9.140;2023-01-28T09:47:34;99379.63;;;3.74
77223;BMP280;66218;48.928;9.140;2023-01-28T09:50:06;99375.94;;;3.89
77223;BMP280;66218;48.928;9.140;2023-01-28T09:52:39;99380.66;;;3.98
77223;BMP280;66218;48.928;9.140;2023-01-28T09:58:11;99388.44;;;4.11
77223;BMP280;66218;48.928;9.140;2023-01-28T10:03:53;99383.53;;;4.09
77223;BMP280;66218;48.928;9.140;2023-01-28T10:06:27;99381.81;;;3.95
77223;BMP280;66218;48.928;9.140;2023-01-28T10:12:13;99383.38;;;3.98
77223;BMP280;66218;48.928;9.140;2023-01-28T10:14:55;99385.66;;;4.01
77223;BMP280;66218;48.928;9.140;2023-01-28T10:20:05;99368.59;;;4.10
77223;BMP280;66218;48.928;9.140;2023-01-28T10:22:41;99377.63;;;4.13
77223;BMP280;66218;48.928;9.140;2023-01-28T10:25:18;99370.16;;;4.23
77223;BMP280;66218;48.928;9.140;2023-01-28T10:27:46;99370.28;;;4.25
77223;BMP280;66218;48.928;9.140;2023-01-28T10:30:19;99366.66;;;4.42
77223;BMP280;66218;48.928;9.140;2023-01-28T10:35:45;99372.28;;;4.54
77223;BMP280;66218;48.928;9.140;2023-01-28T10:38:14;99358.25;;;4.69
77223;BMP280;66218;48.928;9.140;2023-01-28T10:40:41;99359.22;;;4.83
77223;BMP280;66218;48.928;9.140;2023-01-28T10:43:07;99359.06;;;4.91
77223;BMP280;66218;48.928;9.140;2023-01-28T10:48:37;99361.53;;;5.18
77223;BMP280;66218;48.928;9.140;2023-01-28T10:51:07;99366.78;;;5.26
77223;BMP280;66218;48.928;9.140;2023-01-28T10:53:34;99362.47;;;5.01
77223;BMP280;66218;48.928;9.140;2023-01-28T10:56:02;99367.97;;;4.91
77223;BMP280;66218;48.928;9.140;2023-01-28T10:58:29;99367.06;;;4.99
77223;BMP280;66218;48.928;9.140;2023-01-28T11:01:05;99375.72;;;4.95
77223;BMP280;66218;48.928;9.140;2023-01-28T11:03:31;99369.56;;;4.85
77223;BMP280;66218;48.928;9.140;2023-01-28T11:05:59;99378.50;;;4.85
77223;BMP280;66218;48.928;9.140;2023-01-28T11:08:28;99375.81;;;4.76
77223;BMP280;66218;48.928;9.140;2023-01-28T11:10:54;99373.25;;;4.49
77223;BMP280;66218;48.928;9.140;2023-01-28T11:13:28;99371.16;;;4.28
77223;BMP280;66218;48.928;9.140;2023-01-28T11:18:29;99378.63;;;4.08
77223;BMP280;66218;48.928;9.140;2023-01-28T11:21:02;99367.84;;;4.00
77223;BMP280;66218;48.928;9.140;2023-01-28T11:23:33;99379.63;;;3.83
77223;BMP280;66218;48.928;9.140;2023-01-28T11:26:08;99366.13;;;3.76
77223;BMP280;66218;48.928;9.140;2023-01-28T11:28:40;99372.75;;;3.82
77223;BMP280;66218;48.928;9.140;2023-01-28T11:31:06;99369.16;;;3.80
77223;BMP280;66218;48.928;9.140;2023-01-28T11:36:22;99377.34;;;3.80
77223;BMP280;66218;48.928;9.140;2023-01-28T11:41:17;99376.91;;;3.64
77223;BMP280;66218;48.928;9.140;2023-01-28T11:43:43;99377.72;;;3.57
77223;BMP280;66218;48.928;9.140;2023-01-28T11:49:18;99380.44;;;3.38
77223;BMP280;66218;48.928;9.140;2023-01-28T11:52:40;99379.41;;;3.33
77223;BMP280;66218;48.928;9.140;2023-01-28T12:00:41;99382.47;;;3.10
77223;BMP280;66218;48.928;9.140;2023-01-28T12:11:53;99384.03;;;2.76
77223;BMP280;66218;48.928;9.140;2023-01-28T12:15:16;99382.34;;;2.81
77223;BMP280;66218;48.928;9.140;2023-01-28T12:34:10;99386.03;;;2.32
77223;BMP280;66218;48.928;9.140;2023-01-28T12:42:29;99373.94;;;2.42
77223;BMP280;66218;48.928;9.140;2023-01-28T12:45:32;99377.47;;;2.35
77223;BMP280;66218;48.928;9.140;2023-01-28T12:48:07;99372.91;;;2.38
77223;BMP280;66218;48.928;9.140;2023-01-28T12:50:50;99371.63;;;2.39
77223;BMP280;66218;48.928;9.140;2023-01-28T12:53:39;99364.94;;;2.49
77223;BMP280;66218;48.928;9.140;2023-01-28T12:56:11;99366.31;;;2.41
77223;BMP280;66218;48.928;9.140;2023-01-28T12:58:45;99366.88;;;2.39
77223;BMP280;66218;48.928;9.140;2023-01-28T13:01:15;99362.72;;;2.38
77223;BMP280;66218;48.928;9.140;2023-01-28T13:04:04;99352.22;;;2.52
77223;BMP280;66218;48.928;9.140;2023-01-28T13:06:46;99357.25;;;2.55
77223;BMP280;66218;48.928;9.140;2023-01-28T13:09:17;99355.16;;;2.64
77223;BMP280;66218;48.928;9.140;2023-01-28T13:11:44;99354.28;;;2.61
77223;BMP280;66218;48.928;9.140;2023-01-28T13:14:11;99357.72;;;2.62
77223;BMP280;66218;48.928;9.140;2023-01-28T13:16:37;99358.44;;;2.62
77223;BMP280;66218;48.928;9.140;2023-01-28T13:19:19;99364.97;;;2.76
77223;BMP280;66218;48.928;9.140;2023-01-28T13:21:46;99363.72;;;2.87
77223;BMP280;66218;48.928;9.140;2023-01-28T13:26:54;99368.91;;;2.93
77223;BMP280;66218;48.928;9.140;2023-01-28T13:31:50;99370.53;;;3.05
77223;BMP280;66218;48.928;9.140;2023-01-28T13:37:25;99363.34;;;3.37
77223;BMP280;66218;48.928;9.140;2023-01-28T13:39:57;99363.66;;;3.60
77223;BMP280;66218;48.928;9.140;2023-01-28T13:42:25;99375.56;;;3.55
77223;BMP280;66218;48.928;9.140;2023-01-28T13:44:51;99375.28;;;3.51
77223;BMP280;66218;48.928;9.140;2023-01-28T13:49:53;99372.56;;;3.61
77223;BMP280;66218;48.928;9.140;2023-01-28T13:52:26;99379.91;;;3.58
77223;BMP280;66218;48.928;9.140;2023-01-28T13:55:12;99376.44;;;3.58
77223;BMP280;66218;48.928;9.140;2023-01-28T14:14:26;99392.69;;;3.75
77223;BMP280;66218;48.928;9.140;2023-01-28T14:19:35;99397.00;;;3.59
77223;BMP280;66218;48.928;9.140;2023-01-28T14:22:16;99392.94;;;3.50
77223;BMP280;66218;48.928;9.140;2023-01-28T14:24:43;99401.44;;;3.54
77223;BMP280;66218;48.928;9.140;2023-01-28T14:27:16;99395.09;;;3.52
77223;BMP280;66218;48.928;9.140;2023-01-28T14:32:27;99416.06;;;3.49
77223;BMP280;66218;48.928;9.140;2023-01-28T14:34:54;99419.06;;;3.53
77223;BMP280;66218;48.928;9.140;2023-01-28T14:37:24;99426.84;;;3.57
77223;BMP280;66218;48.928;9.140;2023-01-28T14:39:54;99426.00;;;3.54
77223;BMP280;66218;48.928;9.140;2023-01-28T14:42:25;99425.41;;;3.46
77223;BMP280;66218;48.928;9.140;2023-01-28T14:55:30;99424.75;;;3.28
77223;BMP280;66218;48.928;9.140;2023-01-28T14:58:01;99431.94;;;3.33
77223;BMP280;66218;48.928;9.140;2023-01-28T15:00:30;99435.69;;;3.38
77223;BMP280;66218;48.928;9.140;2023-01-28T15:02:56;99428.81;;;3.37
77223;BMP280;66218;48.928;9.140;2023-01-28T15:05:24;99436.84;;;3.35
77223;BMP280;66218;48.928;9.140;2023-01-28T15:07:51;99441.56;;;3.34
77223;BMP280;66218;48.928;9.140;2023-01-28T15:10:27;99447.84;;;3.27
77223;BMP280;66218;48.928;9.140;2023-01-28T15:13:03;99443.84;;;3.28
77223;BMP280;66218;48.928;9.140;2023-01-28T15:15:32;99453.16;;;3.25
77223;BMP280;66218;48.928;9.140;2023-01-28T15:18:06;99455.16;;;3.25
77223;BMP280;66218;48.928;9.140;2023-01-28T15:20:36;99452.03;;;3.28
77223;BMP280;66218;48.928;9.140;2023-01-28T15:23:05;99451.91;;;3.36
77223;BMP280;66218;48.928;9.140;2023-01-28T15:25:31;99459.94;;;3.34
77223;BMP280;66218;48.928;9.140;2023-01-28T15:28:00;99457.22;;;3.34
77223;BMP280;66218;48.928;9.140;2023-01-28T15:30:29;99454.09;;;3.38
77223;BMP280;66218;48.928;9.140;2023-01-28T15:33:03;99451.34;;;3.38
77223;BMP280;66218;48.928;9.140;2023-01-28T15:35:29;99464.50;;;3.31
77223;BMP280;66218;48.928;9.140;2023-01-28T15:37:55;99460.94;;;3.29
77223;BMP280;66218;48.928;9.140;2023-01-28T15:40:22;99465.06;;;3.20
77223;BMP280;66218;48.928;9.140;2023-01-28T15:42:48;99465.06;;;3.20
77223;BMP280;66218;48.928;9.140;2023-01-28T15:45:18;99454.81;;;3.11
77223;BMP280;66218;48.928;9.140;2023-01-28T15:47:46;99462.38;;;3.03
77223;BMP280;66218;48.928;9.140;2023-01-28T15:50:23;99464.94;;;3.01
77223;BMP280;66218;48.928;9.140;2023-01-28T15:52:51;99464.22;;;3.00
77223;BMP280;66218;48.928;9.140;2023-01-28T15:57:51;99484.81;;;3.11
77223;BMP280;66218;48.928;9.140;2023-01-28T16:00:18;99484.81;;;3.11
77223;BMP280;66218;48.928;9.140;2023-01-28T16:02:46;99475.59;;;3.06
77223;BMP280;66218;48.928;9.140;2023-01-28T16:05:31;99475.84;;;3.01
77223;BMP280;66218;48.928;9.140;2023-01-28T16:08:02;99485.72;;;2.96
77223;BMP280;66218;48.928;9.140;2023-01-28T16:10:28;99474.09;;;2.96
77223;BMP280;66218;48.928;9.140;2023-01-28T16:15:26;99487.28;;;2.90
77223;BMP280;66218;48.928;9.140;2023-01-28T16:17:51;99480.69;;;2.93
77223;BMP280;66218;48.928;9.140;2023-01-28T16:20:25;99490.22;;;2.84
77223;BMP280;66218;48.928;9.140;2023-01-28T16:22:53;99485.50;;;2.85
77223;BMP280;66218;48.928;9.140;2023-01-28T16:27:47;99503.47;;;2.88
77223;BMP280;66218;48.928;9.140;2023-01-28T16:30:13;99488.78;;;2.83
77223;BMP280;66218;48.928;9.140;2023-01-28T16:32:40;99495.13;;;2.86
77223;BMP280;66218;48.928;9.140;2023-01-28T16:35:20;99495.13;;;2.86
77223;BMP280;66218;48.928;9.140;2023-01-28T16:37:47;99500.41;;;2.84
77223;BMP280;66218;48.928;9.140;2023-01-28T16:40:16;99488.22;;;2.85
77223;BMP280;66218;48.928;9.140;2023-01-28T16:42:42;99488.22;;;2.85
77223;BMP280;66218;48.928;9.140;2023-01-28T16:45:19;99485.34;;;2.83